Time;durP1;ratioP1;P1;durP2;ratioP2;P2;SDS_P1;SDS_P2;PMS_P1;PMS_P2;Temp;Humidity;BMP_temperature;BMP_pressure;BME280_temperature;BME280_humidity;BME280_pressure;Samples;Min_cycle;Max_cycle;Signal;HPM_P1;HPM_P2
2022/05/12 00:00:31;;;;;;;10.23;4.80;;;18.60;99.90;;;;;;2069281;28;20524;-72
2022/05/12 00:01:32;;;;;;;9.95;4.78;;;18.60;99.90;;;;;;2069483;28;20029;-72
2022/05/12 00:02:32;;;;;;;11.95;4.68;;;18.60;99.90;;;;;;2072330;28;20026;-72
2022/05/12 00:03:35;;;;;;;7.10;4.15;;;18.60;99.90;;;;;;2069519;28;20022;-72
2022/05/12 00:04:36;;;;;;;6.55;3.80;;;18.60;99.90;;;;;;2075149;28;20410;-72
2022/05/12 00:05:37;;;;;;;7.00;4.03;;;18.60;99.90;;;;;;2074332;28;20410;-73
2022/05/12 00:06:37;;;;;;;12.15;4.22;;;18.50;99.90;;;;;;2069883;28;20026;-73
2022/05/12 00:07:38;;;;;;;9.38;5.18;;;18.50;99.90;;;;;;2071117;28;20022;-72
2022/05/12 00:08:39;;;;;;;6.80;3.90;;;18.50;99.90;;;;;;2072128;28;20030;-72
2022/05/12 00:09:39;;;;;;;6.47;4.63;;;18.50;99.90;;;;;;2070005;28;20034;-72
2022/05/12 00:10:42;;;;;;;7.43;4.22;;;18.50;99.90;;;;;;2069760;28;20026;-72
2022/05/12 00:11:42;;;;;;;6.13;4.35;;;18.50;99.90;;;;;;2068411;28;20026;-72
2022/05/12 00:12:43;;;;;;;6.88;3.90;;;18.40;99.90;;;;;;2070521;28;20056;-72
2022/05/12 00:13:44;;;;;;;9.40;4.60;;;18.40;99.90;;;;;;2073550;28;20076;-72
2022/05/12 00:14:44;;;;;;;6.38;4.20;;;18.40;99.90;;;;;;2070972;28;20076;-72
2022/05/12 00:15:45;;;;;;;9.27;4.53;;;18.40;99.90;;;;;;2076797;28;20493;-72
2022/05/12 00:16:46;;;;;;;9.45;4.43;;;18.30;99.90;;;;;;2085389;28;20013;-72
2022/05/12 00:17:47;;;;;;;6.88;3.95;;;18.30;99.90;;;;;;2069958;28;20473;-72
2022/05/12 00:18:47;;;;;;;8.13;4.28;;;18.30;99.90;;;;;;2069642;28;20065;-72
2022/05/12 00:19:48;;;;;;;7.63;3.90;;;18.30;99.90;;;;;;2071598;28;20060;-70
2022/05/12 00:20:48;;;;;;;7.25;4.18;;;18.30;99.90;;;;;;2070469;28;20413;-71
2022/05/12 00:21:49;;;;;;;4.90;3.47;;;18.20;99.90;;;;;;2069830;28;20065;-70
2022/05/12 00:22:50;;;;;;;6.60;3.95;;;18.10;99.90;;;;;;2070208;28;20066;-70
2022/05/12 00:23:56;;;;;;;8.15;3.78;;;18.20;99.90;;;;;;2072063;28;20052;-70
2022/05/12 00:24:57;;;;;;;7.50;3.13;;;18.10;99.90;;;;;;2070241;28;20466;-70
2022/05/12 00:25:57;;;;;;;6.18;3.17;;;18.10;99.90;;;;;;2072445;28;20412;-70
2022/05/12 00:26:58;;;;;;;9.60;3.40;;;18.00;99.90;;;;;;2077636;28;20025;-71
2022/05/12 00:27:59;;;;;;;5.85;3.25;;;17.90;99.90;;;;;;2079285;28;20057;-70
2022/05/12 00:29:02;;;;;;;6.72;2.95;;;17.80;99.90;;;;;;2073217;28;20529;-70
2022/05/12 00:30:05;;;;;;;6.30;2.42;;;17.80;99.90;;;;;;2074005;28;20145;-70
2022/05/12 00:31:06;;;;;;;4.50;2.70;;;17.80;99.90;;;;;;2074037;28;20030;-70
2022/05/12 00:32:06;;;;;;;7.25;2.47;;;17.70;99.90;;;;;;2070111;28;20067;-71
2022/05/12 00:33:08;;;;;;;7.93;2.45;;;17.70;99.90;;;;;;2071554;28;20165;-70
2022/05/12 00:34:10;;;;;;;7.85;2.90;;;17.70;99.90;;;;;;2072888;28;20029;-70
2022/05/12 00:35:12;;;;;;;5.20;2.50;;;17.60;99.90;;;;;;2069376;28;20128;-71
2022/05/12 00:36:13;;;;;;;6.25;2.50;;;17.60;99.90;;;;;;2070027;28;20061;-71
2022/05/12 00:37:14;;;;;;;8.80;2.22;;;17.60;99.90;;;;;;2072562;28;20033;-70
2022/05/12 00:38:14;;;;;;;4.75;2.58;;;17.60;99.90;;;;;;2072414;28;20490;-70
2022/05/12 00:39:15;;;;;;;6.50;2.53;;;17.50;99.90;;;;;;2073608;28;20018;-70
2022/05/12 00:40:16;;;;;;;5.88;2.65;;;17.50;99.90;;;;;;2076233;28;20446;-70
2022/05/12 00:41:17;;;;;;;5.93;2.60;;;17.50;99.90;;;;;;2071872;28;20457;-70
2022/05/12 00:42:17;;;;;;;5.43;2.50;;;17.50;99.90;;;;;;2074073;28;20057;-70
2022/05/12 00:43:43;;;;;;;4.68;2.60;;;17.40;99.90;;;;;;2071008;28;20081;-69
2022/05/12 00:44:44;;;;;;;6.47;2.40;;;17.40;99.90;;;;;;2073542;28;20092;-70
2022/05/12 00:45:45;;;;;;;7.10;2.42;;;17.30;99.90;;;;;;2075947;28;20029;-71
2022/05/12 00:46:49;;;;;;;4.57;2.92;;;17.30;99.90;;;;;;2077041;28;20030;-70
2022/05/12 00:47:50;;;;;;;3.47;2.28;;;17.30;99.90;;;;;;2070291;28;20026;-71
2022/05/12 00:48:52;;;;;;;5.25;2.72;;;17.30;99.90;;;;;;2073743;28;20048;-70
2022/05/12 00:49:53;;;;;;;5.72;2.60;;;17.30;99.90;;;;;;2071903;28;20018;-70
2022/05/12 00:50:54;;;;;;;6.80;3.08;;;17.20;99.90;;;;;;2087757;28;20021;-70
2022/05/12 00:51:58;;;;;;;7.03;2.95;;;17.20;99.90;;;;;;2085719;28;20095;-70
2022/05/12 00:53:00;;;;;;;4.60;2.60;;;17.20;99.90;;;;;;2070998;28;20097;-70
2022/05/12 00:54:05;;;;;;;8.35;2.85;;;17.10;99.90;;;;;;2071022;28;20053;-70
2022/05/12 00:55:09;;;;;;;5.40;2.72;;;17.10;99.90;;;;;;2070353;28;20081;-70
2022/05/12 00:56:14;;;;;;;6.88;2.70;;;17.10;99.90;;;;;;2084366;28;20504;-70
2022/05/12 00:57:20;;;;;;;8.05;3.17;;;17.10;99.90;;;;;;2086381;28;20021;-71
2022/05/12 00:58:22;;;;;;;20.30;3.55;;;17.00;99.90;;;;;;2072689;28;20072;-70
2022/05/12 00:59:28;;;;;;;4.63;2.78;;;17.00;99.90;;;;;;2073918;28;20073;-70
2022/05/12 01:00:29;;;;;;;6.43;2.90;;;17.00;99.90;;;;;;2073891;28;20895;-70
2022/05/12 01:01:30;;;;;;;5.10;2.67;;;17.00;99.90;;;;;;2074439;28;20551;-70
2022/05/12 01:02:32;;;;;;;8.50;3.20;;;16.90;99.90;;;;;;2070837;28;20022;-70
2022/05/12 01:03:33;;;;;;;7.53;3.05;;;16.90;99.90;;;;;;2070414;28;20022;-70
2022/05/12 01:04:34;;;;;;;5.50;3.03;;;16.90;99.90;;;;;;2071622;28;20072;-70
2022/05/12 01:05:34;;;;;;;4.45;2.83;;;16.80;99.90;;;;;;2073697;28;20030;-70
2022/05/12 01:06:35;;;;;;;5.85;2.88;;;16.80;99.90;;;;;;2073279;28;20017;-70
2022/05/12 01:07:36;;;;;;;7.30;2.85;;;16.80;99.90;;;;;;2070367;28;20896;-70
2022/05/12 01:08:38;;;;;;;10.98;3.85;;;16.90;99.90;;;;;;2071007;28;20072;-70
2022/05/12 01:09:39;;;;;;;7.25;3.10;;;16.80;99.90;;;;;;2072906;28;20067;-70
2022/05/12 01:10:41;;;;;;;5.78;3.05;;;16.80;99.90;;;;;;2072276;28;20030;-70
2022/05/12 01:11:42;;;;;;;8.05;3.20;;;16.80;99.90;;;;;;2070556;28;20405;-70
2022/05/12 01:12:46;;;;;;;5.72;2.83;;;16.80;99.90;;;;;;2071434;28;20017;-70
2022/05/12 01:13:59;;;;;;;8.27;2.85;;;16.70;99.90;;;;;;2073035;28;20026;-70
2022/05/12 01:15:00;;;;;;;6.75;2.72;;;16.70;99.90;;;;;;2070256;28;20100;-70
2022/05/12 01:16:02;;;;;;;4.22;2.35;;;16.60;99.90;;;;;;2069523;28;20097;-70
2022/05/12 01:17:04;;;;;;;4.75;2.25;;;16.60;99.90;;;;;;2071512;28;20466;-70
2022/05/12 01:18:15;;;;;;;3.42;1.98;;;16.50;99.90;;;;;;2071778;28;20623;-70
2022/05/12 01:19:19;;;;;;;6.50;2.88;;;16.50;99.90;;;;;;2068561;28;20477;-70
2022/05/12 01:20:20;;;;;;;3.70;2.30;;;16.50;99.90;;;;;;2071854;28;20530;-70
2022/05/12 01:21:20;;;;;;;5.88;2.22;;;16.40;99.90;;;;;;2070986;28;20538;-69
2022/05/12 01:22:44;;;;;;;3.80;1.90;;;16.50;99.90;;;;;;2070759;28;20751;-70
2022/05/12 01:23:48;;;;;;;5.38;2.38;;;16.40;99.90;;;;;;2071756;28;20049;-70
2022/05/12 01:24:48;;;;;;;5.75;2.40;;;16.30;99.90;;;;;;2070657;28;20424;-70
2022/05/12 01:25:49;;;;;;;7.05;3.00;;;16.40;99.90;;;;;;2070427;28;20018;-70
2022/05/12 01:26:50;;;;;;;2.85;1.80;;;16.30;99.90;;;;;;2069899;28;20045;-70
2022/05/12 01:27:51;;;;;;;5.88;2.42;;;16.30;99.90;;;;;;2069795;28;20492;-70
2022/05/12 01:28:52;;;;;;;5.95;2.15;;;16.30;99.90;;;;;;2074270;28;20026;-70
2022/05/12 01:29:58;;;;;;;5.05;2.22;;;16.40;99.90;;;;;;2074772;28;20065;-70
2022/05/12 01:31:00;;;;;;;4.80;2.33;;;16.30;99.90;;;;;;2069641;28;20079;-70
2022/05/12 01:32:01;;;;;;;4.28;2.22;;;16.30;99.90;;;;;;2071777;28;20026;-70
2022/05/12 01:33:01;;;;;;;8.23;2.38;;;16.30;99.90;;;;;;2072077;28;20022;-70
2022/05/12 01:34:05;;;;;;;4.47;2.33;;;16.30;99.90;;;;;;2071813;28;20072;-70
2022/05/12 01:35:07;;;;;;;5.57;2.35;;;16.30;99.90;;;;;;2071455;28;20030;-70
2022/05/12 01:36:07;;;;;;;6.53;2.60;;;16.20;99.90;;;;;;2070800;28;20022;-70
2022/05/12 01:37:08;;;;;;;6.72;2.40;;;16.20;99.90;;;;;;2071572;28;20057;-70
2022/05/12 01:38:08;;;;;;;19.17;2.75;;;16.20;99.90;;;;;;2070733;28;20580;-70
2022/05/12 01:39:09;;;;;;;5.40;2.72;;;16.20;99.90;;;;;;2071176;28;20036;-70
2022/05/12 01:40:13;;;;;;;2.45;2.22;;;16.20;99.90;;;;;;2072890;28;20025;-70
2022/05/12 01:41:15;;;;;;;4.43;2.28;;;16.20;99.90;;;;;;2070209;28;20057;-70
2022/05/12 01:42:16;;;;;;;4.60;2.28;;;16.20;99.90;;;;;;2070233;28;20063;-70
2022/05/12 01:43:17;;;;;;;5.18;2.70;;;16.20;99.90;;;;;;2068890;28;20071;-70
2022/05/12 01:44:17;;;;;;;5.03;1.92;;;16.10;99.90;;;;;;2074572;28;20386;-70
2022/05/12 01:45:18;;;;;;;5.32;2.42;;;16.10;99.90;;;;;;2073374;28;20018;-70
2022/05/12 01:46:19;;;;;;;5.07;2.25;;;16.10;99.90;;;;;;2072726;28;20045;-70
2022/05/12 01:47:19;;;;;;;5.70;3.10;;;16.10;99.90;;;;;;2071909;28;20601;-70
2022/05/12 01:48:20;;;;;;;4.60;2.50;;;16.10;99.90;;;;;;2074015;28;20022;-70
2022/05/12 01:49:21;;;;;;;3.42;2.38;;;16.10;99.90;;;;;;2070303;28;20038;-70
2022/05/12 01:50:22;;;;;;;5.18;2.40;;;16.10;99.90;;;;;;2071054;28;20112;-70
2022/05/12 01:51:22;;;;;;;5.43;2.55;;;16.10;99.90;;;;;;2074312;28;20482;-70
2022/05/12 01:52:23;;;;;;;5.28;2.58;;;16.10;99.90;;;;;;2070479;28;20588;-70
2022/05/12 01:53:23;;;;;;;4.03;2.20;;;16.10;99.90;;;;;;2071501;28;20026;-70
2022/05/12 01:54:25;;;;;;;6.07;2.58;;;16.10;99.90;;;;;;2071373;28;20057;-70
2022/05/12 01:55:27;;;;;;;4.43;2.38;;;16.10;99.90;;;;;;2068873;28;20127;-70
2022/05/12 01:56:27;;;;;;;3.67;2.20;;;16.00;99.90;;;;;;2071905;28;20022;-70
2022/05/12 01:57:29;;;;;;;5.70;2.33;;;16.00;99.90;;;;;;2072358;28;20036;-70
2022/05/12 01:58:30;;;;;;;5.13;2.38;;;16.00;99.90;;;;;;2071221;28;20022;-70
2022/05/12 01:59:30;;;;;;;5.45;2.22;;;16.00;99.90;;;;;;2069487;28;20049;-70
2022/05/12 02:00:32;;;;;;;5.07;2.25;;;16.00;99.90;;;;;;2072474;28;20496;-70
2022/05/12 02:01:32;;;;;;;4.00;2.38;;;16.00;99.90;;;;;;2070140;28;20022;-70
2022/05/12 02:02:33;;;;;;;2.63;1.98;;;16.00;99.90;;;;;;2069926;28;20022;-70
2022/05/12 02:03:34;;;;;;;6.82;2.40;;;16.00;99.90;;;;;;2071305;28;20673;-70
2022/05/12 02:04:35;;;;;;;6.95;3.20;;;16.00;99.90;;;;;;2086789;28;20762;-70
2022/05/12 02:05:38;;;;;;;7.70;2.83;;;16.00;99.90;;;;;;2084830;28;20025;-70
2022/05/12 02:06:39;;;;;;;6.70;2.20;;;16.00;99.90;;;;;;2070482;28;20051;-70
2022/05/12 02:07:42;;;;;;;5.30;2.50;;;15.90;99.90;;;;;;2071398;28;20140;-70
2022/05/12 02:08:42;;;;;;;3.17;2.30;;;15.90;99.90;;;;;;2074659;28;20413;-70
2022/05/12 02:09:44;;;;;;;4.28;1.90;;;15.90;99.90;;;;;;2072368;28;20022;-70
2022/05/12 02:10:49;;;;;;;4.35;2.00;;;15.80;99.90;;;;;;2071862;28;20410;-70
2022/05/12 02:11:49;;;;;;;4.97;2.03;;;15.80;99.90;;;;;;2073144;28;20056;-70
2022/05/12 02:12:50;;;;;;;6.28;2.20;;;15.80;99.90;;;;;;2072857;28;20028;-70
2022/05/12 02:13:51;;;;;;;5.10;1.52;;;15.80;99.90;;;;;;2070949;28;20399;-70
2022/05/12 02:14:52;;;;;;;4.75;1.70;;;15.80;99.90;;;;;;2070362;28;20080;-70
2022/05/12 02:15:57;;;;;;;7.35;2.38;;;15.80;99.90;;;;;;2074489;28;20033;-70
2022/05/12 02:16:58;;;;;;;8.48;2.40;;;15.80;99.90;;;;;;2072005;28;20061;-70
2022/05/12 02:17:58;;;;;;;5.75;2.08;;;15.80;99.90;;;;;;2069158;28;20501;-70
2022/05/12 02:19:01;;;;;;;5.13;2.35;;;15.80;99.90;;;;;;2071435;28;20037;-70
2022/05/12 02:20:03;;;;;;;6.78;2.25;;;15.80;99.90;;;;;;2075692;28;20442;-70
2022/05/12 02:21:03;;;;;;;4.72;2.67;;;15.70;99.90;;;;;;2072113;28;20026;-70
2022/05/12 02:22:06;;;;;;;7.63;2.35;;;15.70;99.90;;;;;;2073191;28;20101;-70
2022/05/12 02:23:07;;;;;;;5.00;2.30;;;15.70;99.90;;;;;;2070977;28;20026;-70
2022/05/12 02:24:07;;;;;;;6.22;2.40;;;15.70;99.90;;;;;;2073005;28;20105;-70
2022/05/12 02:25:09;;;;;;;9.18;2.55;;;15.70;99.90;;;;;;2071587;28;20022;-70
2022/05/12 02:26:10;;;;;;;4.70;2.30;;;15.70;99.90;;;;;;2085749;28;20396;-70
2022/05/12 02:27:10;;;;;;;4.95;1.90;;;15.70;99.90;;;;;;2085073;28;20032;-70
2022/05/12 02:28:12;;;;;;;3.92;2.20;;;15.60;99.90;;;;;;2074424;28;20124;-70
2022/05/12 02:29:12;;;;;;;3.95;2.00;;;15.70;99.90;;;;;;2074368;28;20025;-70
2022/05/12 02:30:17;;;;;;;2.90;1.60;;;15.60;99.90;;;;;;2071463;28;20092;-70
2022/05/12 02:31:18;;;;;;;5.47;2.53;;;15.60;99.90;;;;;;2067843;28;20034;-70
2022/05/12 02:32:18;;;;;;;6.50;2.50;;;15.60;99.90;;;;;;2072295;28;20148;-70
2022/05/12 02:33:19;;;;;;;5.18;2.70;;;15.60;99.90;;;;;;2071147;28;20025;-70
2022/05/12 02:34:19;;;;;;;5.13;2.53;;;15.60;99.90;;;;;;2073677;28;20066;-70
2022/05/12 02:35:21;;;;;;;2.90;2.22;;;15.60;99.90;;;;;;2072165;28;20038;-70
2022/05/12 02:36:22;;;;;;;4.93;2.00;;;15.60;99.90;;;;;;2070441;28;20040;-70
2022/05/12 02:37:24;;;;;;;6.95;1.88;;;15.60;99.90;;;;;;2069230;28;20477;-70
2022/05/12 02:38:24;;;;;;;5.45;2.90;;;15.50;99.90;;;;;;2068667;28;20076;-70
2022/05/12 02:39:30;;;;;;;4.03;2.05;;;15.50;99.90;;;;;;2068013;28;20080;-70
2022/05/12 02:40:31;;;;;;;4.18;2.10;;;15.60;99.90;;;;;;2069996;28;20060;-70
2022/05/12 02:41:32;;;;;;;5.18;2.50;;;15.50;99.90;;;;;;2071604;28;20025;-70
2022/05/12 02:42:32;;;;;;;5.03;2.35;;;15.50;99.90;;;;;;2071304;28;20593;-70
2022/05/12 02:43:33;;;;;;;5.03;2.58;;;15.50;99.90;;;;;;2070637;28;20018;-70
2022/05/12 02:44:34;;;;;;;4.53;2.30;;;15.50;99.90;;;;;;2070537;28;20025;-70
2022/05/12 02:45:34;;;;;;;3.17;1.88;;;15.50;99.90;;;;;;2069109;28;20066;-70
2022/05/12 02:46:35;;;;;;;5.43;2.40;;;15.50;99.90;;;;;;2069385;28;20022;-70
2022/05/12 02:47:35;;;;;;;6.18;2.53;;;15.40;99.90;;;;;;2068885;28;20084;-70
2022/05/12 02:48:43;;;;;;;7.97;2.60;;;15.40;99.90;;;;;;2073799;28;20057;-70
2022/05/12 02:49:43;;;;;;;4.40;2.15;;;15.40;99.90;;;;;;2071144;28;20378;-70
2022/05/12 02:50:44;;;;;;;4.18;1.65;;;15.40;99.90;;;;;;2071934;28;20044;-70
2022/05/12 02:51:44;;;;;;;6.25;2.72;;;15.40;99.90;;;;;;2074998;28;20022;-70
2022/05/12 02:52:45;;;;;;;4.28;2.75;;;15.40;99.90;;;;;;2070408;28;20025;-70
2022/05/12 02:53:46;;;;;;;6.85;2.38;;;15.40;99.90;;;;;;2071458;28;20029;-70
2022/05/12 02:54:46;;;;;;;6.25;2.42;;;15.40;99.90;;;;;;2070872;28;20022;-70
2022/05/12 02:55:47;;;;;;;6.10;2.20;;;15.40;99.90;;;;;;2069536;28;20021;-70
2022/05/12 02:56:49;;;;;;;4.85;2.10;;;15.40;99.90;;;;;;2071020;28;20030;-70
2022/05/12 02:57:49;;;;;;;4.53;1.80;;;15.40;99.90;;;;;;2070570;28;20018;-70
2022/05/12 02:58:50;;;;;;;5.72;1.77;;;15.40;99.90;;;;;;2071199;28;20026;-70
2022/05/12 02:59:50;;;;;;;5.50;2.03;;;15.40;99.90;;;;;;2070036;28;20029;-70
2022/05/12 03:00:52;;;;;;;4.55;2.13;;;15.30;99.90;;;;;;2073569;28;20036;-70
2022/05/12 03:01:52;;;;;;;4.47;2.28;;;15.30;99.90;;;;;;2068271;28;20014;-70
2022/05/12 03:02:53;;;;;;;5.40;2.72;;;15.30;99.90;;;;;;2071296;28;20021;-70
2022/05/12 03:03:53;;;;;;;6.95;2.55;;;15.30;99.90;;;;;;2072210;28;20060;-70
2022/05/12 03:04:54;;;;;;;3.92;2.10;;;15.30;99.90;;;;;;2070613;28;20469;-70
2022/05/12 03:05:55;;;;;;;3.85;2.45;;;15.30;99.90;;;;;;2070285;28;20014;-70
2022/05/12 03:06:55;;;;;;;7.38;2.35;;;15.20;99.90;;;;;;2071905;28;20025;-70
2022/05/12 03:07:56;;;;;;;3.67;2.10;;;15.20;99.90;;;;;;2072123;28;20038;-70
2022/05/12 03:08:58;;;;;;;5.13;2.42;;;15.20;99.90;;;;;;2072910;28;20033;-70
2022/05/12 03:09:58;;;;;;;3.92;2.22;;;15.20;99.90;;;;;;2072135;28;20057;-70
2022/05/12 03:10:59;;;;;;;6.30;2.65;;;15.20;99.90;;;;;;2073275;28;20025;-70
2022/05/12 03:11:59;;;;;;;5.72;2.65;;;15.20;99.90;;;;;;2071012;28;20087;-70
2022/05/12 03:13:01;;;;;;;4.82;2.50;;;15.20;99.90;;;;;;2072272;28;20025;-70
2022/05/12 03:14:03;;;;;;;4.75;2.20;;;15.10;99.90;;;;;;2069632;28;20428;-70
2022/05/12 03:15:05;;;;;;;5.60;1.85;;;15.10;99.90;;;;;;2072075;28;20436;-70
2022/05/12 03:16:06;;;;;;;7.13;2.20;;;15.10;99.90;;;;;;2086275;28;20029;-70
2022/05/12 03:17:06;;;;;;;5.03;2.42;;;15.10;99.90;;;;;;2076984;28;20882;-70
2022/05/12 03:18:07;;;;;;;4.55;2.10;;;15.10;99.90;;;;;;2067926;28;20498;-70
2022/05/12 03:19:08;;;;;;;5.65;2.45;;;15.00;99.90;;;;;;2070465;28;20057;-70
2022/05/12 03:20:09;;;;;;;4.28;2.60;;;15.00;99.90;;;;;;2071781;28;20040;-70
2022/05/12 03:21:10;;;;;;;4.35;2.20;;;15.00;99.90;;;;;;2072840;28;20025;-70
2022/05/12 03:22:11;;;;;;;5.57;2.50;;;15.00;99.90;;;;;;2070685;28;20026;-70
2022/05/12 03:23:13;;;;;;;6.13;2.50;;;14.90;99.90;;;;;;2071447;28;20474;-70
2022/05/12 03:24:18;;;;;;;4.10;2.58;;;15.00;99.90;;;;;;2072573;28;20018;-70
2022/05/12 03:25:20;;;;;;;5.03;2.58;;;14.90;99.90;;;;;;2068603;28;20472;-70
2022/05/12 03:26:22;;;;;;;4.50;2.78;;;14.90;99.90;;;;;;2070398;28;20046;-70
2022/05/12 03:27:23;;;;;;;4.07;2.20;;;14.90;99.90;;;;;;2071844;28;20039;-70
2022/05/12 03:28:24;;;;;;;4.70;2.30;;;14.90;99.90;;;;;;2071438;28;20519;-70
2022/05/12 03:29:24;;;;;;;5.55;2.00;;;14.80;99.90;;;;;;2071260;28;20413;-70
2022/05/12 03:30:25;;;;;;;4.53;2.38;;;14.80;99.90;;;;;;2066723;28;20022;-70
2022/05/12 03:31:26;;;;;;;5.72;2.30;;;14.70;99.90;;;;;;2070604;28;20066;-70
2022/05/12 03:32:26;;;;;;;7.13;2.78;;;14.80;99.90;;;;;;2073487;28;20036;-70
2022/05/12 03:33:27;;;;;;;4.20;2.10;;;14.70;99.90;;;;;;2069926;28;20026;-70
2022/05/12 03:34:27;;;;;;;4.63;2.35;;;14.70;99.90;;;;;;2086363;28;20025;-70
2022/05/12 03:35:28;;;;;;;3.30;2.17;;;14.70;99.90;;;;;;2085453;28;20574;-70
2022/05/12 03:36:31;;;;;;;4.22;1.98;;;14.70;99.90;;;;;;2068935;28;20026;-70
2022/05/12 03:37:33;;;;;;;5.53;2.13;;;14.60;99.90;;;;;;2067221;28;20532;-70
2022/05/12 03:38:34;;;;;;;5.40;2.65;;;14.60;99.90;;;;;;2070853;28;20496;-70
2022/05/12 03:39:37;;;;;;;3.83;2.45;;;14.60;99.90;;;;;;2071975;28;20604;-70
2022/05/12 03:40:38;;;;;;;6.15;2.85;;;14.60;99.90;;;;;;2069721;28;20045;-70
2022/05/12 03:41:39;;;;;;;5.63;2.80;;;14.60;99.90;;;;;;2069512;28;20018;-70
2022/05/12 03:42:39;;;;;;;5.40;2.47;;;14.50;99.90;;;;;;2073300;28;20050;-70
2022/05/12 03:45:00;;;;;;;5.97;2.42;;;14.50;99.90;;;;;;2071142;28;20030;-70
2022/05/12 03:46:00;;;;;;;4.30;2.22;;;14.50;99.90;;;;;;2066301;28;20017;-70
2022/05/12 03:47:01;;;;;;;9.38;3.13;;;14.50;99.90;;;;;;2073562;28;20477;-70
2022/05/12 03:48:02;;;;;;;3.75;2.30;;;14.40;99.90;;;;;;2070904;28;20022;-70
2022/05/12 03:49:02;;;;;;;6.32;2.92;;;14.40;99.90;;;;;;2072049;28;20054;-70
2022/05/12 03:50:10;;;;;;;5.30;2.63;;;14.40;99.90;;;;;;2070569;28;20022;-70
2022/05/12 03:51:12;;;;;;;3.72;2.30;;;14.40;99.90;;;;;;2071755;28;20022;-70
2022/05/12 03:52:12;;;;;;;3.78;2.35;;;14.30;99.90;;;;;;2070573;28;20033;-70
2022/05/12 03:53:13;;;;;;;5.75;2.45;;;14.30;99.90;;;;;;2072456;28;20018;-70
2022/05/12 03:54:13;;;;;;;5.13;2.55;;;14.30;99.90;;;;;;2071939;28;20034;-70
2022/05/12 03:55:16;;;;;;;4.95;2.75;;;14.30;99.90;;;;;;2071883;28;20022;-70
2022/05/12 03:56:17;;;;;;;4.75;2.42;;;14.30;99.90;;;;;;2071625;28;20048;-70
2022/05/12 03:57:19;;;;;;;9.40;3.53;;;14.30;99.90;;;;;;2072395;28;20448;-70
2022/05/12 03:58:20;;;;;;;5.45;2.30;;;14.30;99.90;;;;;;2070461;28;20033;-70
2022/05/12 03:59:20;;;;;;;4.82;2.15;;;14.20;99.90;;;;;;2071783;28;20105;-70
2022/05/12 04:00:26;;;;;;;5.78;2.22;;;14.20;99.90;;;;;;2068993;28;20032;-70
2022/05/12 04:01:26;;;;;;;6.75;2.60;;;14.20;99.90;;;;;;2067451;28;21368;-70
2022/05/12 04:02:27;;;;;;;4.90;2.25;;;14.20;99.90;;;;;;2071707;28;20650;-70
2022/05/12 04:03:27;;;;;;;5.22;2.92;;;14.20;99.90;;;;;;2072767;28;20026;-70
2022/05/12 04:04:28;;;;;;;9.32;3.25;;;14.20;99.90;;;;;;2072989;28;20056;-70
2022/05/12 04:05:31;;;;;;;6.28;2.97;;;14.20;99.90;;;;;;2073504;28;20050;-70
2022/05/12 04:06:31;;;;;;;5.43;2.63;;;14.20;99.90;;;;;;2071642;28;20434;-70
2022/05/12 04:07:33;;;;;;;4.65;2.90;;;14.20;99.90;;;;;;2073762;28;20033;-70
2022/05/12 04:08:34;;;;;;;5.32;2.88;;;14.20;99.90;;;;;;2070492;28;20091;-70
2022/05/12 04:09:35;;;;;;;8.38;2.85;;;14.10;99.90;;;;;;2071842;28;20691;-71
2022/05/12 04:10:35;;;;;;;6.40;3.03;;;14.20;99.90;;;;;;2071164;28;20018;-70
2022/05/12 04:11:36;;;;;;;5.75;2.75;;;14.10;99.90;;;;;;2071742;28;20065;-70
2022/05/12 04:12:37;;;;;;;4.68;2.53;;;14.10;99.90;;;;;;2085616;28;20025;-70
2022/05/12 04:13:37;;;;;;;4.43;2.70;;;14.10;99.90;;;;;;2086393;28;20479;-70
2022/05/12 04:14:39;;;;;;;7.20;2.97;;;14.10;99.90;;;;;;2071145;28;20022;-70
2022/05/12 04:15:40;;;;;;;5.07;2.50;;;14.10;99.90;;;;;;2070414;28;20096;-70
2022/05/12 04:16:40;;;;;;;5.82;2.40;;;14.10;99.90;;;;;;2072767;28;20022;-70
2022/05/12 04:17:41;;;;;;;3.47;2.28;;;14.10;99.90;;;;;;2070156;28;20030;-70
2022/05/12 04:18:42;;;;;;;6.22;2.55;;;14.10;99.90;;;;;;2073221;28;20113;-70
2022/05/12 04:19:44;;;;;;;4.78;2.15;;;14.10;99.90;;;;;;2068474;28;20549;-70
2022/05/12 04:20:45;;;;;;;5.88;2.40;;;14.10;99.90;;;;;;2071240;28;20097;-70
2022/05/12 04:21:45;;;;;;;6.28;2.75;;;14.10;99.90;;;;;;2072093;28;20018;-70
2022/05/12 04:22:46;;;;;;;5.97;2.50;;;14.10;99.90;;;;;;2071520;28;20516;-70
2022/05/12 04:23:46;;;;;;;3.65;2.53;;;14.10;99.90;;;;;;2073251;28;20029;-70
2022/05/12 04:24:47;;;;;;;5.53;2.75;;;14.10;99.90;;;;;;2071481;28;20029;-70
2022/05/12 04:25:47;;;;;;;5.05;2.78;;;14.10;99.90;;;;;;2076146;28;20029;-71
2022/05/12 04:26:48;;;;;;;5.40;2.90;;;14.10;99.90;;;;;;2074284;28;20399;-70
2022/05/12 04:27:49;;;;;;;5.82;2.28;;;14.00;99.90;;;;;;2073033;28;20602;-70
2022/05/12 04:28:49;;;;;;;2.97;2.22;;;14.00;99.90;;;;;;2067955;28;20045;-70
2022/05/12 04:29:50;;;;;;;3.30;2.33;;;14.00;99.90;;;;;;2073696;28;20102;-71
2022/05/12 04:30:51;;;;;;;6.20;3.70;;;14.00;99.90;;;;;;2070894;28;20049;-71
2022/05/12 04:31:51;;;;;;;8.32;3.30;;;14.00;99.90;;;;;;2072809;28;20014;-71
2022/05/12 04:32:53;;;;;;;4.95;2.90;;;14.00;99.90;;;;;;2073058;28;20033;-72
2022/05/12 04:35:14;;;;;;;5.43;2.90;;;14.00;99.90;;;;;;2073737;28;20025;-71
2022/05/12 04:36:15;;;;;;;4.55;2.70;;;14.00;99.90;;;;;;2071608;28;20649;-71
2022/05/12 04:37:15;;;;;;;4.60;2.42;;;14.00;99.90;;;;;;2071175;28;20026;-70
2022/05/12 04:38:16;;;;;;;7.75;3.20;;;14.00;99.90;;;;;;2071715;28;20100;-70
2022/05/12 04:39:17;;;;;;;7.30;2.83;;;14.00;99.90;;;;;;2072711;28;20040;-70
2022/05/12 04:40:21;;;;;;;4.55;2.65;;;14.10;99.90;;;;;;2069139;28;20034;-70
2022/05/12 04:41:21;;;;;;;6.43;2.80;;;14.10;99.90;;;;;;2069387;28;20053;-70
2022/05/12 04:42:22;;;;;;;4.78;2.72;;;14.10;99.90;;;;;;2071109;28;20014;-70
2022/05/12 04:43:23;;;;;;;3.95;2.47;;;14.10;99.90;;;;;;2070967;28;20026;-71
2022/05/12 04:44:23;;;;;;;7.45;2.97;;;14.10;99.90;;;;;;2072457;28;20113;-71
2022/05/12 04:45:31;;;;;;;3.90;2.83;;;14.20;99.90;;;;;;2073441;28;20028;-70
2022/05/12 04:46:34;;;;;;;7.53;3.58;;;14.10;99.90;;;;;;2070554;28;20037;-70
2022/05/12 04:47:36;;;;;;;7.25;2.97;;;14.20;99.90;;;;;;2073061;28;20017;-70
2022/05/12 04:48:38;;;;;;;6.32;3.47;;;14.20;99.90;;;;;;2069057;28;20392;-70
2022/05/12 04:49:39;;;;;;;7.13;3.15;;;14.30;99.90;;;;;;2071431;28;20615;-70
2022/05/12 04:50:42;;;;;;;8.85;3.40;;;14.30;99.90;;;;;;2068943;28;20502;-71
2022/05/12 04:51:42;;;;;;;7.22;3.53;;;14.30;99.90;;;;;;2071968;28;20077;-70
2022/05/12 04:52:43;;;;;;;8.23;3.60;;;14.40;99.90;;;;;;2068350;28;20025;-70
2022/05/12 04:53:44;;;;;;;9.60;3.72;;;14.40;99.90;;;;;;2069465;28;20030;-70
2022/05/12 04:54:45;;;;;;;7.38;3.67;;;14.50;99.90;;;;;;2068613;28;20026;-70
2022/05/12 04:55:47;;;;;;;9.95;3.97;;;14.50;99.90;;;;;;2068477;28;20037;-70
2022/05/12 04:56:48;;;;;;;7.40;3.10;;;14.60;99.90;;;;;;2071338;28;20104;-71
2022/05/12 04:57:50;;;;;;;6.35;3.33;;;14.60;99.90;;;;;;2072736;28;20080;-71
2022/05/12 04:58:50;;;;;;;10.18;3.72;;;14.70;99.90;;;;;;2068514;28;20072;-70
2022/05/12 04:59:55;;;;;;;7.47;3.80;;;14.80;99.90;;;;;;2067827;28;20023;-70
2022/05/12 05:00:56;;;;;;;10.05;3.50;;;14.80;99.90;;;;;;2068143;28;20018;-70
2022/05/12 05:01:56;;;;;;;6.65;3.63;;;14.90;99.90;;;;;;2070239;28;20093;-70
2022/05/12 05:02:57;;;;;;;8.07;3.85;;;14.90;99.90;;;;;;2069672;28;20034;-70
2022/05/12 05:04:00;;;;;;;7.97;3.20;;;15.00;99.90;;;;;;2068881;28;20030;-70
2022/05/12 05:05:01;;;;;;;14.25;3.80;;;15.10;99.90;;;;;;2069052;28;20030;-70
2022/05/12 05:06:01;;;;;;;5.47;2.90;;;15.10;99.90;;;;;;2070390;28;20042;-70
2022/05/12 05:07:02;;;;;;;8.18;3.30;;;15.20;99.90;;;;;;2084222;28;20108;-70
2022/05/12 05:08:04;;;;;;;9.73;3.42;;;15.30;99.90;;;;;;2084412;28;20104;-70
2022/05/12 05:09:06;;;;;;;6.18;3.22;;;15.30;99.90;;;;;;2066677;28;20030;-70
2022/05/12 05:10:07;;;;;;;10.05;3.85;;;15.30;99.90;;;;;;2067101;28;20035;-70
2022/05/12 05:11:08;;;;;;;7.03;3.55;;;15.40;99.90;;;;;;2065009;28;20022;-70
2022/05/12 05:12:09;;;;;;;6.03;3.33;;;15.40;99.90;;;;;;2067343;28;20028;-70
2022/05/12 05:13:10;;;;;;;8.13;4.10;;;15.50;99.90;;;;;;2069307;28;20041;-70
2022/05/12 05:14:10;;;;;;;8.98;3.90;;;15.50;99.90;;;;;;2069666;28;20637;-70
2022/05/12 05:15:12;;;;;;;10.20;5.05;;;15.50;99.90;;;;;;2069413;28;20045;-71
2022/05/12 05:16:13;;;;;;;10.60;5.45;;;15.60;99.90;;;;;;2069638;28;20079;-70
2022/05/12 05:17:14;;;;;;;11.55;4.82;;;15.60;99.90;;;;;;2070041;28;20101;-70
2022/05/12 05:18:16;;;;;;;7.90;4.20;;;15.70;99.90;;;;;;2070549;28;20088;-70
2022/05/12 05:19:17;;;;;;;8.90;4.60;;;15.70;99.90;;;;;;2070907;28;20493;-70
2022/05/12 05:20:27;;;;;;;6.88;3.50;;;15.70;99.90;;;;;;2071056;28;20529;-70
2022/05/12 05:21:28;;;;;;;10.18;4.13;;;15.80;99.90;;;;;;2069271;28;20022;-70
2022/05/12 05:22:28;;;;;;;7.63;3.80;;;15.80;99.90;;;;;;2071483;28;20601;-70